sensor_id;sensor_type;location;lat;lon;timestamp;temperature;humidity
23633;DHT22;11993;48.748;9.166;2023-11-22T00:00:10;7.20;91.40
23633;DHT22;11993;48.748;9.166;2023-11-22T00:02:36;7.20;91.10
23633;DHT22;11993;48.748;9.166;2023-11-22T00:05:02;7.20;91.40
23633;DHT22;11993;48.748;9.166;2023-11-22T00:07:28;7.20;91.30
23633;DHT22;11993;48.748;9.166;2023-11-22T00:09:54;7.30;91.20
23633;DHT22;11993;48.748;9.166;2023-11-22T00:12:20;7.20;91.40
23633;DHT22;11993;48.748;9.166;2023-11-22T00:14:46;7.10;91.70
23633;DHT22;11993;48.748;9.166;2023-11-22T00:17:12;7.10;92.00
23633;DHT22;11993;48.748;9.166;2023-11-22T00:19:38;7.10;91.90
23633;DHT22;11993;48.748;9.166;2023-11-22T00:22:04;6.50;91.40
23633;DHT22;11993;48.748;9.166;2023-11-22T00:24:37;6.20;91.20
23633;DHT22;11993;48.748;9.166;2023-11-22T00:27:02;6.20;91.60
23633;DHT22;11993;48.748;9.166;2023-11-22T00:29:28;6.20;91.70
23633;DHT22;11993;48.748;9.166;2023-11-22T00:31:54;6.20;91.50
23633;DHT22;11993;48.748;9.166;2023-11-22T00:34:19;6.10;91.60
23633;DHT22;11993;48.748;9.166;2023-11-22T00:36:45;6.00;91.90
23633;DHT22;11993;48.748;9.166;2023-11-22T00:39:10;5.70;92.10
23633;DHT22;11993;48.748;9.166;2023-11-22T00:41:39;5.70;91.90
23633;DHT22;11993;48.748;9.166;2023-11-22T00:44:04;5.70;92.00
23633;DHT22;11993;48.748;9.166;2023-11-22T00:46:34;5.80;91.80
23633;DHT22;11993;48.748;9.166;2023-11-22T00:48:59;5.60;91.80
23633;DHT22;11993;48.748;9.166;2023-11-22T00:51:25;5.60;91.90
23633;DHT22;11993;48.748;9.166;2023-11-22T00:53:51;5.60;91.70
23633;DHT22;11993;48.748;9.166;2023-11-22T00:56:17;5.50;91.60
23633;DHT22;11993;48.748;9.166;2023-11-22T00:58:43;5.60;91.80
23633;DHT22;11993;48.748;9.166;2023-11-22T01:01:09;5.60;91.50
23633;DHT22;11993;48.748;9.166;2023-11-22T01:03:34;5.60;91.20
23633;DHT22;11993;48.748;9.166;2023-11-22T01:06:03;5.50;91.50
23633;DHT22;11993;48.748;9.166;2023-11-22T01:08:28;5.50;91.40
23633;DHT22;11993;48.748;9.166;2023-11-22T01:10:54;5.40;91.20
23633;DHT22;11993;48.748;9.166;2023-11-22T01:13:19;5.40;90.80
23633;DHT22;11993;48.748;9.166;2023-11-22T01:15:47;5.20;91.20
23633;DHT22;11993;48.748;9.166;2023-11-22T01:18:13;5.20;90.90
23633;DHT22;11993;48.748;9.166;2023-11-22T01:20:38;5.10;90.70
23633;DHT22;11993;48.748;9.166;2023-11-22T01:23:04;5.00;90.70
23633;DHT22;11993;48.748;9.166;2023-11-22T01:25:29;4.90;91.10
23633;DHT22;11993;48.748;9.166;2023-11-22T01:27:55;5.10;91.20
23633;DHT22;11993;48.748;9.166;2023-11-22T01:30:22;5.00;90.90
23633;DHT22;11993;48.748;9.166;2023-11-22T01:32:47;5.00;90.80
23633;DHT22;11993;48.748;9.166;2023-11-22T01:35:14;5.10;90.90
23633;DHT22;11993;48.748;9.166;2023-11-22T01:37:40;4.90;90.60
23633;DHT22;11993;48.748;9.166;2023-11-22T01:40:07;5.00;90.70
23633;DHT22;11993;48.748;9.166;2023-11-22T01:42:33;5.00;90.40
23633;DHT22;11993;48.748;9.166;2023-11-22T01:45:00;4.90;90.30
23633;DHT22;11993;48.748;9.166;2023-11-22T01:47:25;4.90;90.40
23633;DHT22;11993;48.748;9.166;2023-11-22T01:49:52;4.90;90.80
23633;DHT22;11993;48.748;9.166;2023-11-22T01:52:19;4.90;90.20
23633;DHT22;11993;48.748;9.166;2023-11-22T01:54:45;4.90;90.40
23633;DHT22;11993;48.748;9.166;2023-11-22T01:57:11;4.80;90.30
23633;DHT22;11993;48.748;9.166;2023-11-22T01:59:38;4.70;90.60
23633;DHT22;11993;48.748;9.166;2023-11-22T02:02:04;4.70;90.60
23633;DHT22;11993;48.748;9.166;2023-11-22T02:04:29;4.70;90.60
23633;DHT22;11993;48.748;9.166;2023-11-22T02:06:55;4.60;90.30
23633;DHT22;11993;48.748;9.166;2023-11-22T02:09:21;4.60;90.00
23633;DHT22;11993;48.748;9.166;2023-11-22T02:11:47;4.60;90.20
23633;DHT22;11993;48.748;9.166;2023-11-22T02:14:14;4.60;90.00
23633;DHT22;11993;48.748;9.166;2023-11-22T02:16:41;4.40;89.70
23633;DHT22;11993;48.748;9.166;2023-11-22T02:19:08;4.30;89.90
23633;DHT22;11993;48.748;9.166;2023-11-22T02:21:37;4.30;89.70
23633;DHT22;11993;48.748;9.166;2023-11-22T02:24:02;4.40;88.90
23633;DHT22;11993;48.748;9.166;2023-11-22T02:26:28;4.50;89.20
23633;DHT22;11993;48.748;9.166;2023-11-22T02:28:55;4.40;89.10
23633;DHT22;11993;48.748;9.166;2023-11-22T02:31:20;4.40;88.60
23633;DHT22;11993;48.748;9.166;2023-11-22T02:33:46;4.30;89.00
23633;DHT22;11993;48.748;9.166;2023-11-22T02:36:11;4.20;89.20
23633;DHT22;11993;48.748;9.166;2023-11-22T02:38:38;4.10;89.30
23633;DHT22;11993;48.748;9.166;2023-11-22T02:41:03;4.20;88.30
23633;DHT22;11993;48.748;9.166;2023-11-22T02:43:30;4.10;88.00
23633;DHT22;11993;48.748;9.166;2023-11-22T02:45:55;4.00;87.80
23633;DHT22;11993;48.748;9.166;2023-11-22T02:48:21;3.90;87.60
23633;DHT22;11993;48.748;9.166;2023-11-22T02:50:46;4.00;87.00
23633;DHT22;11993;48.748;9.166;2023-11-22T02:53:12;3.90;87.50
23633;DHT22;11993;48.748;9.166;2023-11-22T02:55:37;3.80;87.70
23633;DHT22;11993;48.748;9.166;2023-11-22T02:58:03;3.80;87.40
23633;DHT22;11993;48.748;9.166;2023-11-22T03:00:29;3.80;86.90
23633;DHT22;11993;48.748;9.166;2023-11-22T03:02:55;3.70;87.50
23633;DHT22;11993;48.748;9.166;2023-11-22T03:05:22;3.80;87.60
23633;DHT22;11993;48.748;9.166;2023-11-22T03:07:48;3.80;86.90
23633;DHT22;11993;48.748;9.166;2023-11-22T03:10:16;3.90;86.90
23633;DHT22;11993;48.748;9.166;2023-11-22T03:12:44;3.70;87.60
23633;DHT22;11993;48.748;9.166;2023-11-22T03:15:09;3.80;87.80
23633;DHT22;11993;48.748;9.166;2023-11-22T03:17:36;3.70;87.00
23633;DHT22;11993;48.748;9.166;2023-11-22T03:20:04;3.60;87.60
23633;DHT22;11993;48.748;9.166;2023-11-22T03:22:34;3.60;88.30
23633;DHT22;11993;48.748;9.166;2023-11-22T03:25:02;3.60;87.90
23633;DHT22;11993;48.748;9.166;2023-11-22T03:27:27;3.50;87.90
23633;DHT22;11993;48.748;9.166;2023-11-22T03:29:53;3.40;87.30
23633;DHT22;11993;48.748;9.166;2023-11-22T03:32:18;3.30;87.10
23633;DHT22;11993;48.748;9.166;2023-11-22T03:34:44;3.40;87.80
23633;DHT22;11993;48.748;9.166;2023-11-22T03:37:09;3.30;87.50
23633;DHT22;11993;48.748;9.166;2023-11-22T03:39:36;3.40;87.50
23633;DHT22;11993;48.748;9.166;2023-11-22T03:42:01;3.20;87.50
23633;DHT22;11993;48.748;9.166;2023-11-22T03:44:27;3.20;87.20
23633;DHT22;11993;48.748;9.166;2023-11-22T03:46:54;3.20;86.70
23633;DHT22;11993;48.748;9.166;2023-11-22T03:49:19;3.30;87.20
23633;DHT22;11993;48.748;9.166;2023-11-22T03:51:45;3.40;86.90
23633;DHT22;11993;48.748;9.166;2023-11-22T03:54:11;3.60;86.40
23633;DHT22;11993;48.748;9.166;2023-11-22T03:56:38;3.30;86.70
23633;DHT22;11993;48.748;9.166;2023-11-22T03:59:03;3.40;86.30
23633;DHT22;11993;48.748;9.166;2023-11-22T04:01:29;3.30;86.20
23633;DHT22;11993;48.748;9.166;2023-11-22T04:03:55;3.40;86.50
23633;DHT22;11993;48.748;9.166;2023-11-22T04:06:20;3.40;86.60
23633;DHT22;11993;48.748;9.166;2023-11-22T04:08:47;3.40;86.10
23633;DHT22;11993;48.748;9.166;2023-11-22T04:11:13;3.40;86.20
23633;DHT22;11993;48.748;9.166;2023-11-22T04:13:39;3.50;86.00
23633;DHT22;11993;48.748;9.166;2023-11-22T04:16:06;3.40;86.80
23633;DHT22;11993;48.748;9.166;2023-11-22T04:18:40;3.40;86.20
23633;DHT22;11993;48.748;9.166;2023-11-22T04:21:06;3.30;86.70
23633;DHT22;11993;48.748;9.166;2023-11-22T04:23:32;3.50;86.80
23633;DHT22;11993;48.748;9.166;2023-11-22T04:25:58;3.60;86.40
23633;DHT22;11993;48.748;9.166;2023-11-22T04:28:24;3.60;86.20
23633;DHT22;11993;48.748;9.166;2023-11-22T04:30:50;3.70;86.20
23633;DHT22;11993;48.748;9.166;2023-11-22T04:33:17;3.60;86.10
23633;DHT22;11993;48.748;9.166;2023-11-22T04:35:43;3.60;86.10
23633;DHT22;11993;48.748;9.166;2023-11-22T04:38:09;3.60;85.90
23633;DHT22;11993;48.748;9.166;2023-11-22T04:40:34;3.50;86.20
23633;DHT22;11993;48.748;9.166;2023-11-22T04:43:00;3.60;86.50
23633;DHT22;11993;48.748;9.166;2023-11-22T04:45:25;3.40;86.60
23633;DHT22;11993;48.748;9.166;2023-11-22T04:47:51;3.60;86.50
23633;DHT22;11993;48.748;9.166;2023-11-22T04:50:17;3.40;86.70
23633;DHT22;11993;48.748;9.166;2023-11-22T04:52:43;3.40;86.70
23633;DHT22;11993;48.748;9.166;2023-11-22T04:55:09;3.50;86.60
23633;DHT22;11993;48.748;9.166;2023-11-22T04:57:34;3.40;86.10
23633;DHT22;11993;48.748;9.166;2023-11-22T05:00:00;3.40;86.80
23633;DHT22;11993;48.748;9.166;2023-11-22T05:02:30;3.60;86.40
23633;DHT22;11993;48.748;9.166;2023-11-22T05:04:56;3.50;86.60
23633;DHT22;11993;48.748;9.166;2023-11-22T05:07:22;3.50;86.80
23633;DHT22;11993;48.748;9.166;2023-11-22T05:09:47;3.60;86.70
23633;DHT22;11993;48.748;9.166;2023-11-22T05:12:13;3.60;87.00
23633;DHT22;11993;48.748;9.166;2023-11-22T05:14:40;3.60;86.40
23633;DHT22;11993;48.748;9.166;2023-11-22T05:17:06;3.60;86.50
23633;DHT22;11993;48.748;9.166;2023-11-22T05:19:31;3.50;85.00
23633;DHT22;11993;48.748;9.166;2023-11-22T05:21:57;3.60;84.60
23633;DHT22;11993;48.748;9.166;2023-11-22T05:24:23;3.50;83.90
23633;DHT22;11993;48.748;9.166;2023-11-22T05:26:49;3.50;83.90
23633;DHT22;11993;48.748;9.166;2023-11-22T05:29:14;3.40;84.40
23633;DHT22;11993;48.748;9.166;2023-11-22T05:31:40;3.40;83.70
23633;DHT22;11993;48.748;9.166;2023-11-22T05:34:06;3.30;84.30
23633;DHT22;11993;48.748;9.166;2023-11-22T05:36:31;3.30;84.40
23633;DHT22;11993;48.748;9.166;2023-11-22T05:38:57;3.30;85.10
23633;DHT22;11993;48.748;9.166;2023-11-22T05:41:26;3.40;84.50
23633;DHT22;11993;48.748;9.166;2023-11-22T05:43:52;3.40;85.40
23633;DHT22;11993;48.748;9.166;2023-11-22T05:46:21;3.50;84.80
23633;DHT22;11993;48.748;9.166;2023-11-22T05:48:51;3.50;85.40
23633;DHT22;11993;48.748;9.166;2023-11-22T05:51:17;3.50;85.50
23633;DHT22;11993;48.748;9.166;2023-11-22T05:53:42;3.50;84.50
23633;DHT22;11993;48.748;9.166;2023-11-22T05:56:08;3.50;84.60
23633;DHT22;11993;48.748;9.166;2023-11-22T05:58:34;3.60;85.40
23633;DHT22;11993;48.748;9.166;2023-11-22T06:01:07;3.60;85.30
23633;DHT22;11993;48.748;9.166;2023-11-22T06:03:35;3.60;85.60
23633;DHT22;11993;48.748;9.166;2023-11-22T06:06:01;3.60;85.10
23633;DHT22;11993;48.748;9.166;2023-11-22T06:08:27;3.30;85.80
23633;DHT22;11993;48.748;9.166;2023-11-22T06:10:53;3.40;85.70
23633;DHT22;11993;48.748;9.166;2023-11-22T06:13:21;3.60;85.40
23633;DHT22;11993;48.748;9.166;2023-11-22T06:15:46;3.50;85.20
23633;DHT22;11993;48.748;9.166;2023-11-22T06:18:12;3.40;84.60
23633;DHT22;11993;48.748;9.166;2023-11-22T06:20:39;3.40;85.10
23633;DHT22;11993;48.748;9.166;2023-11-22T06:23:05;3.30;85.30
23633;DHT22;11993;48.748;9.166;2023-11-22T06:25:30;3.40;85.40
23633;DHT22;11993;48.748;9.166;2023-11-22T06:27:56;3.40;85.30
23633;DHT22;11993;48.748;9.166;2023-11-22T06:30:22;3.20;85.50
23633;DHT22;11993;48.748;9.166;2023-11-22T06:32:48;3.20;85.80
23633;DHT22;11993;48.748;9.166;2023-11-22T06:35:14;3.20;86.10
23633;DHT22;11993;48.748;9.166;2023-11-22T06:37:40;3.20;86.50
23633;DHT22;11993;48.748;9.166;2023-11-22T06:40:06;3.30;86.60
23633;DHT22;11993;48.748;9.166;2023-11-22T06:42:33;3.30;86.20
23633;DHT22;11993;48.748;9.166;2023-11-22T06:44:59;3.30;86.40
23633;DHT22;11993;48.748;9.166;2023-11-22T06:47:26;3.30;86.20
23633;DHT22;11993;48.748;9.166;2023-11-22T06:49:52;3.40;86.00
23633;DHT22;11993;48.748;9.166;2023-11-22T06:52:19;3.30;85.40
23633;DHT22;11993;48.748;9.166;2023-11-22T06:54:44;3.40;85.00
23633;DHT22;11993;48.748;9.166;2023-11-22T06:57:10;3.30;84.10
23633;DHT22;11993;48.748;9.166;2023-11-22T06:59:35;3.30;83.40
23633;DHT22;11993;48.748;9.166;2023-11-22T07:02:01;3.20;84.00
23633;DHT22;11993;48.748;9.166;2023-11-22T07:04:27;3.20;84.20
23633;DHT22;11993;48.748;9.166;2023-11-22T07:06:53;3.30;84.10
23633;DHT22;11993;48.748;9.166;2023-11-22T07:09:19;3.50;85.80
23633;DHT22;11993;48.748;9.166;2023-11-22T07:11:44;3.50;84.90
23633;DHT22;11993;48.748;9.166;2023-11-22T07:14:10;3.50;85.00
23633;DHT22;11993;48.748;9.166;2023-11-22T07:16:36;3.40;84.20
23633;DHT22;11993;48.748;9.166;2023-11-22T07:19:02;3.20;84.40
23633;DHT22;11993;48.748;9.166;2023-11-22T07:21:29;3.20;83.00
23633;DHT22;11993;48.748;9.166;2023-11-22T07:23:57;2.90;82.80
23633;DHT22;11993;48.748;9.166;2023-11-22T07:26:24;2.90;83.20
23633;DHT22;11993;48.748;9.166;2023-11-22T07:28:52;2.90;83.40
23633;DHT22;11993;48.748;9.166;2023-11-22T07:31:18;3.10;83.20
23633;DHT22;11993;48.748;9.166;2023-11-22T07:33:45;2.90;83.50
23633;DHT22;11993;48.748;9.166;2023-11-22T07:36:13;3.10;83.40
23633;DHT22;11993;48.748;9.166;2023-11-22T07:38:41;3.00;82.40
23633;DHT22;11993;48.748;9.166;2023-11-22T07:41:08;3.10;82.50
23633;DHT22;11993;48.748;9.166;2023-11-22T07:43:33;2.90;82.00
23633;DHT22;11993;48.748;9.166;2023-11-22T07:45:59;2.80;81.90
23633;DHT22;11993;48.748;9.166;2023-11-22T07:48:26;2.90;82.00
23633;DHT22;11993;48.748;9.166;2023-11-22T07:50:52;2.70;82.60
23633;DHT22;11993;48.748;9.166;2023-11-22T07:53:18;2.80;82.20
23633;DHT22;11993;48.748;9.166;2023-11-22T07:55:44;2.70;81.80
23633;DHT22;11993;48.748;9.166;2023-11-22T07:58:10;2.90;82.20
23633;DHT22;11993;48.748;9.166;2023-11-22T08:00:36;2.70;81.70
23633;DHT22;11993;48.748;9.166;2023-11-22T08:03:07;2.70;81.80
23633;DHT22;11993;48.748;9.166;2023-11-22T08:05:32;2.70;81.90
23633;DHT22;11993;48.748;9.166;2023-11-22T08:08:05;2.70;82.20
23633;DHT22;11993;48.748;9.166;2023-11-22T08:10:35;2.70;82.20
23633;DHT22;11993;48.748;9.166;2023-11-22T08:13:01;2.90;81.70
23633;DHT22;11993;48.748;9.166;2023-11-22T08:15:27;2.70;81.40
23633;DHT22;11993;48.748;9.166;2023-11-22T08:17:54;2.70;81.90
23633;DHT22;11993;48.748;9.166;2023-11-22T08:20:19;2.60;81.80
23633;DHT22;11993;48.748;9.166;2023-11-22T08:22:45;2.60;81.50
23633;DHT22;11993;48.748;9.166;2023-11-22T08:25:12;2.50;81.40
23633;DHT22;11993;48.748;9.166;2023-11-22T08:27:39;2.60;82.30
23633;DHT22;11993;48.748;9.166;2023-11-22T08:30:10;2.60;81.60
23633;DHT22;11993;48.748;9.166;2023-11-22T08:32:40;2.60;81.50
23633;DHT22;11993;48.748;9.166;2023-11-22T08:35:07;2.50;82.40
23633;DHT22;11993;48.748;9.166;2023-11-22T08:37:33;2.60;82.70
23633;DHT22;11993;48.748;9.166;2023-11-22T08:40:01;2.40;83.20
23633;DHT22;11993;48.748;9.166;2023-11-22T08:42:26;2.50;82.50
23633;DHT22;11993;48.748;9.166;2023-11-22T08:44:52;2.60;82.10
23633;DHT22;11993;48.748;9.166;2023-11-22T08:47:17;2.70;82.20
23633;DHT22;11993;48.748;9.166;2023-11-22T08:49:43;2.40;82.00
23633;DHT22;11993;48.748;9.166;2023-11-22T08:52:09;2.60;81.50
23633;DHT22;11993;48.748;9.166;2023-11-22T08:54:34;2.80;81.60
23633;DHT22;11993;48.748;9.166;2023-11-22T08:57:00;2.90;82.70
23633;DHT22;11993;48.748;9.166;2023-11-22T08:59:26;3.10;81.60
23633;DHT22;11993;48.748;9.166;2023-11-22T09:01:52;3.10;80.90
23633;DHT22;11993;48.748;9.166;2023-11-22T09:04:17;3.20;81.00
23633;DHT22;11993;48.748;9.166;2023-11-22T09:06:44;3.20;80.30
23633;DHT22;11993;48.748;9.166;2023-11-22T09:09:10;2.90;80.10
23633;DHT22;11993;48.748;9.166;2023-11-22T09:11:40;2.80;81.10
23633;DHT22;11993;48.748;9.166;2023-11-22T09:14:06;2.60;82.40
23633;DHT22;11993;48.748;9.166;2023-11-22T09:16:36;2.90;81.60
23633;DHT22;11993;48.748;9.166;2023-11-22T09:19:02;2.80;83.00
23633;DHT22;11993;48.748;9.166;2023-11-22T09:21:28;2.90;82.60
23633;DHT22;11993;48.748;9.166;2023-11-22T09:23:55;3.00;82.40
23633;DHT22;11993;48.748;9.166;2023-11-22T09:26:20;3.00;81.90
23633;DHT22;11993;48.748;9.166;2023-11-22T09:28:46;3.10;83.40
23633;DHT22;11993;48.748;9.166;2023-11-22T09:31:11;3.30;81.90
23633;DHT22;11993;48.748;9.166;2023-11-22T09:33:43;3.40;80.40
23633;DHT22;11993;48.748;9.166;2023-11-22T09:36:09;3.40;79.70
23633;DHT22;11993;48.748;9.166;2023-11-22T09:38:34;3.30;79.40
23633;DHT22;11993;48.748;9.166;2023-11-22T09:41:00;3.00;80.70
23633;DHT22;11993;48.748;9.166;2023-11-22T09:43:28;3.00;80.10
23633;DHT22;11993;48.748;9.166;2023-11-22T09:45:54;3.00;80.20
23633;DHT22;11993;48.748;9.166;2023-11-22T09:48:23;3.00;80.30
23633;DHT22;11993;48.748;9.166;2023-11-22T09:53:41;3.10;79.60
23633;DHT22;11993;48.748;9.166;2023-11-22T09:56:10;2.90;80.50
23633;DHT22;11993;48.748;9.166;2023-11-22T09:58:40;3.10;80.20
23633;DHT22;11993;48.748;9.166;2023-11-22T10:01:11;3.10;79.80
23633;DHT22;11993;48.748;9.166;2023-11-22T10:03:37;3.10;79.90
23633;DHT22;11993;48.748;9.166;2023-11-22T10:06:02;3.10;79.70
23633;DHT22;11993;48.748;9.166;2023-11-22T10:08:30;3.00;80.20
23633;DHT22;11993;48.748;9.166;2023-11-22T10:10:56;3.10;79.50
23633;DHT22;11993;48.748;9.166;2023-11-22T10:13:22;2.90;79.70
23633;DHT22;11993;48.748;9.166;2023-11-22T10:15:48;2.80;80.80
23633;DHT22;11993;48.748;9.166;2023-11-22T10:18:14;2.90;81.20
23633;DHT22;11993;48.748;9.166;2023-11-22T10:20:41;2.90;81.30
23633;DHT22;11993;48.748;9.166;2023-11-22T10:23:16;2.90;80.70
23633;DHT22;11993;48.748;9.166;2023-11-22T10:25:47;3.10;80.30
23633;DHT22;11993;48.748;9.166;2023-11-22T10:28:17;3.20;79.90
23633;DHT22;11993;48.748;9.166;2023-11-22T10:30:45;3.10;79.70
23633;DHT22;11993;48.748;9.166;2023-11-22T10:33:11;2.90;80.50
23633;DHT22;11993;48.748;9.166;2023-11-22T10:35:47;2.90;81.40
23633;DHT22;11993;48.748;9.166;2023-11-22T10:38:20;3.10;80.00
23633;DHT22;11993;48.748;9.166;2023-11-22T10:40:46;2.80;80.80
23633;DHT22;11993;48.748;9.166;2023-11-22T10:43:14;2.90;80.80
23633;DHT22;11993;48.748;9.166;2023-11-22T10:45:41;2.80;80.90
23633;DHT22;11993;48.748;9.166;2023-11-22T10:48:11;3.10;81.10
23633;DHT22;11993;48.748;9.166;2023-11-22T10:50:37;3.20;79.40
23633;DHT22;11993;48.748;9.166;2023-11-22T10:53:06;3.10;79.90
23633;DHT22;11993;48.748;9.166;2023-11-22T10:55:32;3.10;79.80
23633;DHT22;11993;48.748;9.166;2023-11-22T10:58:02;3.20;80.10
23633;DHT22;11993;48.748;9.166;2023-11-22T11:00:31;3.20;79.60
23633;DHT22;11993;48.748;9.166;2023-11-22T11:03:08;3.20;79.30
23633;DHT22;11993;48.748;9.166;2023-11-22T11:05:39;3.20;80.10
23633;DHT22;11993;48.748;9.166;2023-11-22T11:08:07;3.30;79.90
23633;DHT22;11993;48.748;9.166;2023-11-22T11:10:46;3.30;80.40
23633;DHT22;11993;48.748;9.166;2023-11-22T11:13:12;3.20;80.50
23633;DHT22;11993;48.748;9.166;2023-11-22T11:15:39;3.30;80.40
23633;DHT22;11993;48.748;9.166;2023-11-22T11:18:06;3.20;80.40
23633;DHT22;11993;48.748;9.166;2023-11-22T11:20:43;3.20;80.80
23633;DHT22;11993;48.748;9.166;2023-11-22T11:23:12;3.50;79.50
23633;DHT22;11993;48.748;9.166;2023-11-22T11:25:41;3.60;78.80
23633;DHT22;11993;48.748;9.166;2023-11-22T11:28:10;3.50;79.20
23633;DHT22;11993;48.748;9.166;2023-11-22T11:30:49;3.50;78.70
23633;DHT22;11993;48.748;9.166;2023-11-22T11:35:50;3.30;78.60
23633;DHT22;11993;48.748;9.166;2023-11-22T11:38:21;3.40;79.80
23633;DHT22;11993;48.748;9.166;2023-11-22T11:40:51;3.50;78.90
23633;DHT22;11993;48.748;9.166;2023-11-22T11:43:48;3.50;78.80
23633;DHT22;11993;48.748;9.166;2023-11-22T11:46:16;3.50;78.60
23633;DHT22;11993;48.748;9.166;2023-11-22T11:48:47;3.50;78.40
23633;DHT22;11993;48.748;9.166;2023-11-22T11:51:14;3.40;78.60
23633;DHT22;11993;48.748;9.166;2023-11-22T11:53:40;3.30;78.70
23633;DHT22;11993;48.748;9.166;2023-11-22T11:56:07;3.20;79.20
23633;DHT22;11993;48.748;9.166;2023-11-22T11:58:32;3.20;79.70
23633;DHT22;11993;48.748;9.166;2023-11-22T12:00:58;3.30;79.30
23633;DHT22;11993;48.748;9.166;2023-11-22T12:03:24;3.20;79.60
23633;DHT22;11993;48.748;9.166;2023-11-22T12:05:50;3.00;79.80
23633;DHT22;11993;48.748;9.166;2023-11-22T12:08:15;3.20;79.00
23633;DHT22;11993;48.748;9.166;2023-11-22T12:10:43;3.10;79.30
23633;DHT22;11993;48.748;9.166;2023-11-22T12:13:08;3.20;79.10
23633;DHT22;11993;48.748;9.166;2023-11-22T12:15:34;3.10;79.40
23633;DHT22;11993;48.748;9.166;2023-11-22T12:18:01;3.10;79.40
23633;DHT22;11993;48.748;9.166;2023-11-22T12:20:27;3.20;78.70
23633;DHT22;11993;48.748;9.166;2023-11-22T12:23:00;3.20;78.80
23633;DHT22;11993;48.748;9.166;2023-11-22T12:25:30;3.10;79.50
23633;DHT22;11993;48.748;9.166;2023-11-22T12:27:56;3.10;79.70
23633;DHT22;11993;48.748;9.166;2023-11-22T12:30:32;3.30;79.30
23633;DHT22;11993;48.748;9.166;2023-11-22T12:33:16;3.30;78.80
23633;DHT22;11993;48.748;9.166;2023-11-22T12:35:43;3.20;78.80
23633;DHT22;11993;48.748;9.166;2023-11-22T12:38:09;3.20;78.70
23633;DHT22;11993;48.748;9.166;2023-11-22T12:40:35;3.20;78.80
23633;DHT22;11993;48.748;9.166;2023-11-22T12:43:02;3.20;78.20
23633;DHT22;11993;48.748;9.166;2023-11-22T12:45:29;3.10;79.40
23633;DHT22;11993;48.748;9.166;2023-11-22T12:47:56;3.20;79.20
23633;DHT22;11993;48.748;9.166;2023-11-22T12:50:34;3.00;80.00
23633;DHT22;11993;48.748;9.166;2023-11-22T12:53:13;3.20;79.40
23633;DHT22;11993;48.748;9.166;2023-11-22T12:55:46;3.00;79.80
23633;DHT22;11993;48.748;9.166;2023-11-22T12:58:20;3.20;79.60
23633;DHT22;11993;48.748;9.166;2023-11-22T13:00:49;3.30;79.50
23633;DHT22;11993;48.748;9.166;2023-11-22T13:03:15;3.20;79.30
23633;DHT22;11993;48.748;9.166;2023-11-22T13:05:43;2.90;80.70
23633;DHT22;11993;48.748;9.166;2023-11-22T13:08:10;3.10;79.80
23633;DHT22;11993;48.748;9.166;2023-11-22T13:10:43;3.00;79.50
23633;DHT22;11993;48.748;9.166;2023-11-22T13:13:09;3.00;79.80
23633;DHT22;11993;48.748;9.166;2023-11-22T13:15:34;3.00;80.10
23633;DHT22;11993;48.748;9.166;2023-11-22T13:18:00;2.80;80.50
23633;DHT22;11993;48.748;9.166;2023-11-22T13:20:26;2.80;80.10
23633;DHT22;11993;48.748;9.166;2023-11-22T13:22:55;2.70;79.20
23633;DHT22;11993;48.748;9.166;2023-11-22T13:25:22;2.90;79.00
23633;DHT22;11993;48.748;9.166;2023-11-22T13:27:49;2.90;79.80
23633;DHT22;11993;48.748;9.166;2023-11-22T13:30:16;3.00;79.30
23633;DHT22;11993;48.748;9.166;2023-11-22T13:32:49;3.10;78.80
23633;DHT22;11993;48.748;9.166;2023-11-22T13:35:15;3.10;78.40
23633;DHT22;11993;48.748;9.166;2023-11-22T13:37:42;3.10;78.20
23633;DHT22;11993;48.748;9.166;2023-11-22T13:40:13;3.20;78.20
23633;DHT22;11993;48.748;9.166;2023-11-22T13:42:45;3.10;78.60
23633;DHT22;11993;48.748;9.166;2023-11-22T13:45:12;3.10;78.40
23633;DHT22;11993;48.748;9.166;2023-11-22T13:47:44;3.10;78.20
23633;DHT22;11993;48.748;9.166;2023-11-22T13:50:10;3.10;78.50
23633;DHT22;11993;48.748;9.166;2023-11-22T13:52:40;3.20;78.30
23633;DHT22;11993;48.748;9.166;2023-11-22T13:55:06;3.10;78.20
23633;DHT22;11993;48.748;9.166;2023-11-22T13:57:36;3.10;77.90
23633;DHT22;11993;48.748;9.166;2023-11-22T14:00:03;3.10;78.30
23633;DHT22;11993;48.748;9.166;2023-11-22T14:02:34;2.90;79.30
23633;DHT22;11993;48.748;9.166;2023-11-22T14:05:00;3.20;78.50
23633;DHT22;11993;48.748;9.166;2023-11-22T14:07:26;3.10;78.60
23633;DHT22;11993;48.748;9.166;2023-11-22T14:09:52;3.20;78.10
23633;DHT22;11993;48.748;9.166;2023-11-22T14:12:18;3.20;77.80
23633;DHT22;11993;48.748;9.166;2023-11-22T14:14:44;3.20;78.20
23633;DHT22;11993;48.748;9.166;2023-11-22T14:17:10;3.20;77.60
23633;DHT22;11993;48.748;9.166;2023-11-22T14:19:36;3.10;78.00
23633;DHT22;11993;48.748;9.166;2023-11-22T14:22:01;3.10;78.40
23633;DHT22;11993;48.748;9.166;2023-11-22T14:24:27;3.20;77.60
23633;DHT22;11993;48.748;9.166;2023-11-22T14:26:55;3.20;77.50
23633;DHT22;11993;48.748;9.166;2023-11-22T14:29:23;3.20;77.60
23633;DHT22;11993;48.748;9.166;2023-11-22T14:31:48;3.30;77.40
23633;DHT22;11993;48.748;9.166;2023-11-22T14:34:14;3.30;77.00
23633;DHT22;11993;48.748;9.166;2023-11-22T14:36:39;3.30;76.80
23633;DHT22;11993;48.748;9.166;2023-11-22T14:39:05;3.20;77.30
23633;DHT22;11993;48.748;9.166;2023-11-22T14:41:32;3.20;77.30
23633;DHT22;11993;48.748;9.166;2023-11-22T14:43:58;3.30;76.60
23633;DHT22;11993;48.748;9.166;2023-11-22T14:46:24;3.20;76.60
23633;DHT22;11993;48.748;9.166;2023-11-22T14:48:49;3.30;76.90
23633;DHT22;11993;48.748;9.166;2023-11-22T14:51:15;3.30;77.10
23633;DHT22;11993;48.748;9.166;2023-11-22T14:53:40;3.30;76.60
23633;DHT22;11993;48.748;9.166;2023-11-22T14:56:10;3.40;76.30
23633;DHT22;11993;48.748;9.166;2023-11-22T14:58:35;3.40;76.50
23633;DHT22;11993;48.748;9.166;2023-11-22T15:01:01;3.40;76.60
23633;DHT22;11993;48.748;9.166;2023-11-22T15:03:26;3.50;76.30
23633;DHT22;11993;48.748;9.166;2023-11-22T15:05:54;3.40;76.10
23633;DHT22;11993;48.748;9.166;2023-11-22T15:08:20;3.30;76.90
23633;DHT22;11993;48.748;9.166;2023-11-22T15:10:45;3.40;76.40
23633;DHT22;11993;48.748;9.166;2023-11-22T15:13:11;3.20;75.80
23633;DHT22;11993;48.748;9.166;2023-11-22T15:15:36;3.30;75.60
23633;DHT22;11993;48.748;9.166;2023-11-22T15:18:02;3.20;76.90
23633;DHT22;11993;48.748;9.166;2023-11-22T15:20:27;3.00;77.40
23633;DHT22;11993;48.748;9.166;2023-11-22T15:22:53;3.10;77.40
23633;DHT22;11993;48.748;9.166;2023-11-22T15:25:19;3.20;76.50
23633;DHT22;11993;48.748;9.166;2023-11-22T15:27:45;3.30;76.40
23633;DHT22;11993;48.748;9.166;2023-11-22T15:30:10;3.20;76.80
23633;DHT22;11993;48.748;9.166;2023-11-22T15:32:37;3.30;76.20
23633;DHT22;11993;48.748;9.166;2023-11-22T15:35:03;3.10;77.70
23633;DHT22;11993;48.748;9.166;2023-11-22T15:37:30;3.20;77.70
23633;DHT22;11993;48.748;9.166;2023-11-22T15:39:56;3.10;77.70
23633;DHT22;11993;48.748;9.166;2023-11-22T15:42:22;3.20;77.60
23633;DHT22;11993;48.748;9.166;2023-11-22T15:44:47;3.10;76.50
23633;DHT22;11993;48.748;9.166;2023-11-22T15:47:13;3.30;76.10